createdAt,value
2023-05-21T00:01:59.906Z,46.09
2023-05-21T00:04:28.581Z,46.34
2023-05-21T00:06:55.575Z,46.01
2023-05-21T00:09:23.979Z,45.87
2023-05-21T00:11:51.044Z,46.56
2023-05-21T00:14:18.281Z,46.01
2023-05-21T00:16:46.889Z,46.46
2023-05-21T00:19:13.912Z,46.01
2023-05-21T00:21:41.045Z,46.33
2023-05-21T00:24:08.879Z,46.03
2023-05-21T00:26:37.451Z,45.85
2023-05-21T00:29:04.505Z,46.39
2023-05-21T00:31:32.151Z,46.27
2023-05-21T00:33:59.342Z,46.29
2023-05-21T00:36:26.319Z,45.93
2023-05-21T00:38:53.487Z,46.36
2023-05-21T00:41:22.895Z,46.10
2023-05-21T00:43:52.775Z,45.75
2023-05-21T00:46:21.429Z,46.17
2023-05-21T00:48:50.922Z,46.24
2023-05-21T00:51:18.504Z,46.15
2023-05-21T00:53:46.582Z,46.20
2023-05-21T00:56:13.784Z,46.01
2023-05-21T00:58:41.628Z,46.08
2023-05-21T01:01:13.730Z,46.61
2023-05-21T01:03:41.255Z,46.39
2023-05-21T01:06:10.252Z,46.55
2023-05-21T01:08:38.609Z,46.37
2023-05-21T01:11:07.201Z,46.63
2023-05-21T01:13:39.381Z,46.30
2023-05-21T01:16:08.635Z,46.93
2023-05-21T01:18:38.117Z,46.66
2023-05-21T01:21:07.303Z,46.78
2023-05-21T01:23:36.010Z,46.64
2023-05-21T01:26:02.971Z,47.10
2023-05-21T01:28:30.054Z,46.86
2023-05-21T01:31:04.980Z,47.19
2023-05-21T01:33:44.363Z,47.01
2023-05-21T01:36:24.048Z,47.12
2023-05-21T01:39:02.038Z,46.98
2023-05-21T01:41:34.569Z,47.08
2023-05-21T01:44:05.857Z,47.64
2023-05-21T01:46:36.470Z,47.24
2023-05-21T01:49:05.199Z,47.46
2023-05-21T01:51:33.073Z,47.28
2023-05-21T01:54:01.778Z,47.34
2023-05-21T01:56:28.769Z,47.21
2023-05-21T01:58:59.431Z,47.33
2023-05-21T02:01:27.062Z,47.34
2023-05-21T02:03:54.098Z,47.45
2023-05-21T02:06:21.390Z,47.28
2023-05-21T02:08:48.428Z,47.58
2023-05-21T02:11:16.827Z,47.25
2023-05-21T02:13:45.948Z,47.15
2023-05-21T02:16:14.812Z,47.18
2023-05-21T02:18:43.420Z,47.40
2023-05-21T02:21:13.658Z,46.84
2023-05-21T02:23:41.684Z,47.41
2023-05-21T02:26:08.896Z,47.57
2023-05-21T02:28:37.162Z,47.63
2023-05-21T02:31:04.098Z,47.64
2023-05-21T02:33:31.144Z,47.29
2023-05-21T02:35:58.365Z,47.51
2023-05-21T02:38:25.758Z,47.51
2023-05-21T02:40:52.986Z,47.55
2023-05-21T02:43:20.178Z,47.68
2023-05-21T02:45:48.905Z,47.62
2023-05-21T02:48:15.930Z,47.55
2023-05-21T02:50:42.883Z,47.53
2023-05-21T02:53:09.808Z,47.75
2023-05-21T02:55:37.052Z,48.16
2023-05-21T02:58:04.636Z,48.74
2023-05-21T03:00:31.549Z,48.84
2023-05-21T03:02:59.978Z,49.01
2023-05-21T03:05:26.943Z,48.89
2023-05-21T03:07:53.841Z,48.96
2023-05-21T03:10:20.887Z,48.71
2023-05-21T03:12:47.797Z,49.59
2023-05-21T03:15:15.007Z,49.91
2023-05-21T03:17:42.386Z,49.93
2023-05-21T03:20:16.216Z,50.13
2023-05-21T03:22:43.442Z,50.11
2023-05-21T03:25:10.738Z,50.13
2023-05-21T03:27:38.846Z,49.95
2023-05-21T03:30:07.602Z,49.83
2023-05-21T03:32:37.599Z,49.67
2023-05-21T03:35:05.801Z,49.89
2023-05-21T03:37:33.994Z,50.16
2023-05-21T03:40:00.952Z,50.28
2023-05-21T03:42:27.966Z,50.19
2023-05-21T03:44:55.173Z,50.51
2023-05-21T03:47:22.111Z,50.29
2023-05-21T03:49:49.024Z,50.13
2023-05-21T03:52:15.905Z,50.15
2023-05-21T03:54:44.224Z,50.48
2023-05-21T03:57:11.147Z,50.30
2023-05-21T03:59:38.046Z,50.38
2023-05-21T04:02:05.446Z,50.34
2023-05-21T04:04:33.687Z,50.43
2023-05-21T04:07:00.835Z,50.03
2023-05-21T04:09:27.976Z,50.25
2023-05-21T04:11:56.249Z,50.01
2023-05-21T04:14:23.445Z,49.64
2023-05-21T04:16:50.330Z,49.89
2023-05-21T04:19:17.327Z,50.17
2023-05-21T04:21:44.924Z,50.50
2023-05-21T04:24:11.950Z,50.14
2023-05-21T04:26:41.934Z,50.43
2023-05-21T04:29:10.314Z,50.28
2023-05-21T04:31:37.333Z,50.27
2023-05-21T04:34:04.936Z,50.28
2023-05-21T04:36:31.881Z,50.33
2023-05-21T04:38:58.785Z,50.01
2023-05-21T04:41:25.668Z,50.02
2023-05-21T04:43:55.457Z,49.62
2023-05-21T04:46:25.195Z,50.03
2023-05-21T04:48:54.861Z,49.42
2023-05-21T04:51:22.718Z,49.68
2023-05-21T04:53:49.858Z,49.60
2023-05-21T04:56:18.413Z,49.59
2023-05-21T04:58:45.622Z,49.67
2023-05-21T05:01:12.869Z,49.67
2023-05-21T05:03:41.275Z,49.22
2023-05-21T05:06:08.566Z,49.30
2023-05-21T05:08:35.760Z,49.32
2023-05-21T05:11:02.987Z,49.31
2023-05-21T05:13:29.942Z,48.86
2023-05-21T05:15:57.383Z,49.11
2023-05-21T05:18:24.470Z,49.11
2023-05-21T05:20:52.822Z,49.04
2023-05-21T05:23:19.684Z,48.90
2023-05-21T05:25:46.857Z,48.53
2023-05-21T05:28:13.805Z,48.56
2023-05-21T05:30:40.794Z,48.83
2023-05-21T05:33:07.888Z,48.14
2023-05-21T05:35:35.025Z,48.18
2023-05-21T05:38:03.448Z,48.60
2023-05-21T05:40:30.560Z,47.93
2023-05-21T05:42:57.453Z,48.29
2023-05-21T05:45:26.495Z,47.90
2023-05-21T05:47:53.411Z,48.23
2023-05-21T05:50:21.013Z,47.60
2023-05-21T05:52:47.930Z,47.80
2023-05-21T05:55:16.327Z,48.09
2023-05-21T05:57:45.000Z,48.12
2023-05-21T06:00:14.030Z,48.01
2023-05-21T06:02:40.985Z,48.06
2023-05-21T06:05:09.854Z,47.62
2023-05-21T06:07:38.534Z,47.85
2023-05-21T06:10:06.729Z,47.36
2023-05-21T06:12:35.303Z,47.33
2023-05-21T06:15:02.237Z,46.94
2023-05-21T06:17:30.567Z,47.67
2023-05-21T06:19:57.631Z,47.72
2023-05-21T06:22:25.646Z,47.86
2023-05-21T06:24:53.086Z,47.43
2023-05-21T06:27:20.276Z,47.91
2023-05-21T06:29:48.535Z,47.52
2023-05-21T06:32:15.711Z,47.86
2023-05-21T06:34:42.619Z,47.16
2023-05-21T06:37:09.729Z,47.40
2023-05-21T06:39:36.646Z,46.59
2023-05-21T06:44:30.802Z,46.77
2023-05-21T06:46:59.029Z,46.53
2023-05-21T06:49:26.455Z,47.09
2023-05-21T06:51:53.408Z,47.03
2023-05-21T06:54:20.383Z,46.65
2023-05-21T06:56:47.352Z,46.28
2023-05-21T06:59:14.293Z,46.67
2023-05-21T07:01:42.604Z,46.16
2023-05-21T07:04:11.355Z,46.45
2023-05-21T07:06:39.106Z,45.92
2023-05-21T07:09:06.332Z,45.69
2023-05-21T07:11:33.283Z,45.50
2023-05-21T07:14:01.657Z,45.35
2023-05-21T07:16:28.760Z,45.79
2023-05-21T07:18:55.783Z,46.10
2023-05-21T07:21:24.619Z,45.46
2023-05-21T07:23:51.565Z,45.51
2023-05-21T07:26:18.760Z,45.24
2023-05-21T07:28:45.808Z,45.29
2023-05-21T07:31:13.118Z,45.43
2023-05-21T07:33:40.139Z,45.49
2023-05-21T07:36:07.573Z,45.10
2023-05-21T07:38:35.777Z,45.18
2023-05-21T07:41:02.681Z,45.64
2023-05-21T07:43:29.616Z,45.18
2023-05-21T07:45:56.590Z,45.37
2023-05-21T07:48:23.660Z,44.83
2023-05-21T07:50:52.443Z,44.87
2023-05-21T07:53:19.619Z,45.05
2023-05-21T07:55:48.104Z,45.01
2023-05-21T07:58:16.359Z,45.17
2023-05-21T08:00:45.210Z,44.88
2023-05-21T08:03:12.374Z,44.86
2023-05-21T08:05:39.518Z,44.68
2023-05-21T08:08:06.622Z,44.59
2023-05-21T08:10:33.529Z,44.62
2023-05-21T08:13:01.726Z,44.25
2023-05-21T08:15:28.648Z,44.13
2023-05-21T08:17:55.671Z,44.11
2023-05-21T08:20:23.017Z,43.88
2023-05-21T08:22:49.921Z,43.46
2023-05-21T08:25:16.835Z,42.78
2023-05-21T08:27:43.786Z,42.95
2023-05-21T08:30:13.187Z,42.94
2023-05-21T08:32:40.092Z,42.52
2023-05-21T08:35:08.590Z,42.75
2023-05-21T08:37:35.570Z,42.33
2023-05-21T08:40:04.128Z,42.05
2023-05-21T08:42:43.404Z,41.53
2023-05-21T08:45:14.313Z,41.39
2023-05-21T08:47:43.975Z,40.62
2023-05-21T08:50:18.264Z,41.10
2023-05-21T08:52:45.903Z,41.03
2023-05-21T08:55:13.257Z,40.59
2023-05-21T08:57:43.871Z,40.67
2023-05-21T09:00:14.110Z,40.34
2023-05-21T09:02:43.838Z,40.45
2023-05-21T09:05:12.280Z,39.91
2023-05-21T09:07:47.030Z,39.28
2023-05-21T09:10:17.327Z,38.64
2023-05-21T09:12:45.669Z,38.36
2023-05-21T09:15:13.976Z,37.84
2023-05-21T09:17:40.902Z,37.49
2023-05-21T09:20:12.295Z,36.60
2023-05-21T09:22:44.324Z,36.26
2023-05-21T09:25:12.719Z,35.83
2023-05-21T09:27:40.415Z,35.49
2023-05-21T09:30:13.336Z,35.90
2023-05-21T09:32:41.324Z,35.94
2023-05-21T09:35:10.571Z,36.03
2023-05-21T09:37:38.620Z,36.36
2023-05-21T09:40:15.149Z,36.52
2023-05-21T09:42:43.682Z,37.04
2023-05-21T09:45:11.479Z,36.52
2023-05-21T09:47:44.463Z,36.50
2023-05-21T09:50:12.841Z,36.43
2023-05-21T09:52:42.097Z,36.06
2023-05-21T09:55:14.459Z,35.47
2023-05-21T09:57:42.850Z,35.37
2023-05-21T10:00:18.460Z,35.59
2023-05-21T10:02:48.056Z,35.14
2023-05-21T10:05:16.665Z,35.07
2023-05-21T10:07:50.062Z,34.94
2023-05-21T10:10:20.487Z,35.58
2023-05-21T10:12:53.143Z,35.33
2023-05-21T10:15:24.353Z,35.96
2023-05-21T10:17:55.483Z,35.46
2023-05-21T10:20:22.944Z,36.02
2023-05-21T10:22:50.739Z,36.49
2023-05-21T10:25:18.803Z,36.21
2023-05-21T10:27:48.132Z,36.38
2023-05-21T10:30:18.007Z,36.42
2023-05-21T10:32:48.077Z,36.76
2023-05-21T10:35:17.715Z,37.05
2023-05-21T10:37:45.543Z,37.31
2023-05-21T10:40:13.842Z,37.16
2023-05-21T10:43:24.958Z,37.27
2023-05-21T10:46:15.132Z,37.52
2023-05-21T10:49:04.633Z,37.69
2023-05-21T10:51:49.273Z,38.21
2023-05-21T10:54:57.886Z,38.00
2023-05-21T10:58:07.683Z,38.19
2023-05-21T11:00:35.073Z,37.65
2023-05-21T11:03:04.957Z,37.75
2023-05-21T11:05:51.195Z,37.50
2023-05-21T11:08:31.760Z,37.10
2023-05-21T11:10:59.444Z,37.47
2023-05-21T11:13:27.738Z,36.71
2023-05-21T11:16:08.058Z,36.00
2023-05-21T11:18:57.964Z,36.01
2023-05-21T11:21:30.497Z,35.85
2023-05-21T11:24:18.617Z,35.85
2023-05-21T11:27:04.266Z,35.87
2023-05-21T11:29:44.445Z,35.87
2023-05-21T11:32:15.455Z,35.53
2023-05-21T11:34:45.819Z,35.74
2023-05-21T11:37:30.588Z,35.76
2023-05-21T11:40:22.758Z,36.24
2023-05-21T11:42:52.680Z,36.28
2023-05-21T11:45:21.204Z,36.14
2023-05-21T11:47:49.473Z,36.05
2023-05-21T11:50:17.638Z,36.26
2023-05-21T11:52:45.392Z,36.15
2023-05-21T11:55:15.630Z,36.37
2023-05-21T11:57:44.735Z,36.70
2023-05-21T12:00:16.811Z,36.78
2023-05-21T12:02:50.494Z,36.71
2023-05-21T12:05:17.907Z,36.73
2023-05-21T12:07:48.820Z,36.85
2023-05-21T12:10:20.898Z,36.56
2023-05-21T12:12:55.464Z,36.39
2023-05-21T12:15:24.406Z,36.52
2023-05-21T12:17:52.966Z,37.17
2023-05-21T12:20:20.681Z,36.83
2023-05-21T12:22:49.033Z,36.47
2023-05-21T12:25:19.823Z,36.62
2023-05-21T12:27:49.813Z,36.84
2023-05-21T12:30:16.964Z,36.45
2023-05-21T12:32:44.405Z,36.74
2023-05-21T12:35:21.884Z,36.38
2023-05-21T12:37:50.700Z,35.94
2023-05-21T12:40:20.199Z,35.93
2023-05-21T12:42:47.402Z,36.20
2023-05-21T12:45:15.173Z,35.62
2023-05-21T12:47:48.936Z,35.71
2023-05-21T12:50:21.682Z,35.01
2023-05-21T12:52:48.682Z,35.45
2023-05-21T12:55:17.155Z,35.62
2023-05-21T12:57:45.754Z,35.13
2023-05-21T13:00:14.207Z,35.12
2023-05-21T13:02:43.272Z,35.66
2023-05-21T13:05:17.687Z,35.74
2023-05-21T13:07:46.916Z,35.47
2023-05-21T13:10:16.148Z,35.35
2023-05-21T13:12:44.467Z,35.71
2023-05-21T13:15:13.922Z,35.63
2023-05-21T13:17:40.989Z,35.56
2023-05-21T13:20:11.978Z,34.94
2023-05-21T13:22:43.385Z,34.52
2023-05-21T13:25:11.560Z,35.19
2023-05-21T13:27:38.937Z,34.85
2023-05-21T13:30:07.662Z,34.83
2023-05-21T13:32:36.889Z,34.06
2023-05-21T13:35:05.010Z,34.54
2023-05-21T13:37:32.192Z,34.53
2023-05-21T13:39:59.181Z,33.67
2023-05-21T13:42:26.116Z,34.08
2023-05-21T13:44:53.471Z,33.89
2023-05-21T13:47:20.543Z,33.66
2023-05-21T13:49:49.180Z,33.67
2023-05-21T13:52:16.968Z,33.60
2023-05-21T13:54:44.052Z,33.71
2023-05-21T13:57:11.028Z,33.95
2023-05-21T13:59:38.096Z,33.62
2023-05-21T14:02:06.073Z,33.23
2023-05-21T14:04:33.013Z,32.71
2023-05-21T14:07:01.601Z,32.95
2023-05-21T14:09:29.285Z,32.40
2023-05-21T14:11:57.098Z,32.27
2023-05-21T14:14:24.561Z,32.48
2023-05-21T14:16:52.318Z,32.17
2023-05-21T14:19:19.369Z,31.53
2023-05-21T14:21:46.388Z,31.26
2023-05-21T14:24:14.630Z,31.64
2023-05-21T14:26:41.803Z,31.02
2023-05-21T14:29:09.269Z,31.09
2023-05-21T14:31:37.060Z,30.27
2023-05-21T14:34:05.094Z,30.43
2023-05-21T14:36:32.477Z,30.71
2023-05-21T14:38:59.502Z,31.00
2023-05-21T14:41:27.946Z,30.93
2023-05-21T14:43:55.170Z,31.49
2023-05-21T14:46:22.162Z,30.91
2023-05-21T14:48:49.208Z,30.66
2023-05-21T14:51:16.377Z,30.90
2023-05-21T14:53:43.316Z,31.34
2023-05-21T14:56:10.449Z,31.11
2023-05-21T14:58:38.811Z,30.37
2023-05-21T15:01:05.919Z,29.93
2023-05-21T15:03:32.997Z,29.54
2023-05-21T15:06:00.046Z,29.10
2023-05-21T15:08:26.978Z,28.73
2023-05-21T15:10:54.996Z,28.92
2023-05-21T15:13:21.875Z,28.59
2023-05-21T15:15:50.400Z,28.67
2023-05-21T15:18:17.342Z,28.78
2023-05-21T15:20:44.437Z,28.47
2023-05-21T15:25:41.150Z,28.61
2023-05-21T15:28:08.081Z,28.80
2023-05-21T15:30:35.206Z,28.12
2023-05-21T15:33:03.563Z,28.02
2023-05-21T15:35:30.653Z,28.51
2023-05-21T15:37:57.685Z,27.97
2023-05-21T15:40:26.901Z,28.07
2023-05-21T15:42:54.457Z,28.15
2023-05-21T15:45:21.403Z,27.98
2023-05-21T15:47:48.580Z,27.67
2023-05-21T15:50:17.284Z,27.69
2023-05-21T15:52:44.185Z,28.35
2023-05-21T15:55:11.219Z,28.04
2023-05-21T15:57:38.214Z,27.99
2023-05-21T16:00:06.935Z,28.44
2023-05-21T16:02:33.857Z,28.84
2023-05-21T16:05:00.914Z,28.20
2023-05-21T16:07:29.146Z,28.67
2023-05-21T16:09:56.092Z,28.28
2023-05-21T16:12:23.072Z,28.40
2023-05-21T16:14:50.300Z,28.40
2023-05-21T16:17:18.161Z,28.50
2023-05-21T16:19:45.193Z,28.48
2023-05-21T16:22:12.059Z,28.63
2023-05-21T16:24:40.418Z,28.57
2023-05-21T16:27:07.294Z,29.32
2023-05-21T16:29:34.229Z,29.32
2023-05-21T16:32:01.193Z,29.53
2023-05-21T16:34:28.133Z,29.46
2023-05-21T16:36:55.156Z,29.09
2023-05-21T16:39:22.073Z,29.43
2023-05-21T16:41:50.419Z,29.00
2023-05-21T16:44:17.481Z,30.05
2023-05-21T16:46:44.424Z,29.65
2023-05-21T16:49:11.381Z,30.15
2023-05-21T16:51:38.320Z,29.66
2023-05-21T16:54:06.280Z,29.79
2023-05-21T16:56:33.214Z,30.68
2023-05-21T16:59:01.775Z,30.56
2023-05-21T17:01:28.906Z,30.87
2023-05-21T17:03:56.352Z,30.13
2023-05-21T17:06:23.978Z,30.34
2023-05-21T17:08:51.016Z,30.73
2023-05-21T17:11:18.117Z,30.79
2023-05-21T17:13:48.016Z,29.97
2023-05-21T17:16:16.418Z,30.84
2023-05-21T17:18:43.503Z,30.85
2023-05-21T17:21:10.815Z,30.90
2023-05-21T17:23:37.861Z,31.06
2023-05-21T17:26:06.944Z,31.15
2023-05-21T17:28:33.896Z,30.94
2023-05-21T17:31:01.702Z,31.46
2023-05-21T17:33:30.072Z,31.50
2023-05-21T17:35:56.982Z,31.57
2023-05-21T17:38:23.975Z,31.66
2023-05-21T17:40:50.915Z,31.10
2023-05-21T17:43:18.000Z,31.49
2023-05-21T17:45:44.972Z,31.52
2023-05-21T17:48:12.094Z,32.09
2023-05-21T17:50:40.457Z,32.06
2023-05-21T17:53:07.452Z,31.80
2023-05-21T17:55:34.573Z,31.61
2023-05-21T17:58:01.704Z,31.83
2023-05-21T18:00:28.590Z,32.82
2023-05-21T18:02:55.609Z,32.92
2023-05-21T18:05:22.749Z,33.22
2023-05-21T18:07:51.072Z,33.50
2023-05-21T18:10:17.972Z,32.80
2023-05-21T18:12:46.274Z,33.11
2023-05-21T18:15:15.014Z,33.39
2023-05-21T18:17:42.017Z,33.69
2023-05-21T18:20:10.148Z,33.58
2023-05-21T18:22:37.050Z,33.81
2023-05-21T18:25:06.714Z,33.81
2023-05-21T18:27:33.588Z,34.27
2023-05-21T18:30:03.257Z,34.28
2023-05-21T18:32:30.441Z,33.96
2023-05-21T18:34:58.429Z,34.00
2023-05-21T18:37:27.028Z,33.47
2023-05-21T18:39:53.997Z,34.24
2023-05-21T18:42:22.267Z,33.80
2023-05-21T18:44:51.211Z,34.13
2023-05-21T18:47:18.191Z,33.92
2023-05-21T18:49:45.157Z,34.29
2023-05-21T18:52:12.159Z,34.36
2023-05-21T18:54:39.103Z,34.78
2023-05-21T18:57:06.279Z,34.73
2023-05-21T18:59:34.582Z,35.14
2023-05-21T19:02:01.596Z,35.36
2023-05-21T19:04:28.728Z,35.26
2023-05-21T19:06:55.781Z,35.54
2023-05-21T19:09:22.752Z,35.62
2023-05-21T19:11:50.556Z,35.94
2023-05-21T19:14:17.507Z,36.62
2023-05-21T19:16:45.961Z,36.98
2023-05-21T19:19:12.949Z,36.94
2023-05-21T19:21:40.002Z,37.00
2023-05-21T19:24:07.626Z,37.03
2023-05-21T19:26:34.778Z,36.89
2023-05-21T19:29:01.678Z,37.75
2023-05-21T19:31:28.695Z,37.68
2023-05-21T19:33:56.991Z,38.02
2023-05-21T19:36:24.803Z,38.20
2023-05-21T19:38:51.793Z,38.65
2023-05-21T19:41:21.879Z,38.90
2023-05-21T19:43:48.793Z,38.82
2023-05-21T19:46:19.092Z,38.75
2023-05-21T19:48:46.940Z,39.63
2023-05-21T19:51:15.788Z,39.73
2023-05-21T19:53:42.707Z,40.01
2023-05-21T19:56:09.616Z,39.72
2023-05-21T19:58:36.469Z,40.20
2023-05-21T20:01:03.720Z,40.57
2023-05-21T20:03:35.661Z,41.07
2023-05-21T20:06:02.731Z,41.28
2023-05-21T20:08:31.205Z,41.20
2023-05-21T20:10:58.099Z,41.11
2023-05-21T20:13:25.115Z,41.23
2023-05-21T20:15:52.201Z,41.36
2023-05-21T20:18:22.063Z,41.40
2023-05-21T20:20:49.147Z,41.15
2023-05-21T20:23:16.151Z,41.89
2023-05-21T20:25:44.406Z,41.87
2023-05-21T20:28:12.037Z,42.08
2023-05-21T20:30:53.632Z,42.59
2023-05-21T20:33:20.865Z,42.95
2023-05-21T20:35:47.852Z,42.69
2023-05-21T20:38:15.753Z,43.02
2023-05-21T20:40:44.550Z,43.54
2023-05-21T20:43:14.897Z,43.49
2023-05-21T20:45:41.882Z,43.01
2023-05-21T20:48:09.722Z,42.88
2023-05-21T20:50:37.345Z,42.90
2023-05-21T20:53:04.437Z,43.30
2023-05-21T20:55:34.685Z,43.58
2023-05-21T20:58:03.651Z,43.57
2023-05-21T21:00:31.585Z,43.53
2023-05-21T21:03:01.169Z,44.29
2023-05-21T21:05:28.599Z,44.12
2023-05-21T21:07:56.098Z,44.42
2023-05-21T21:10:23.204Z,44.28
2023-05-21T21:12:50.269Z,44.38
2023-05-21T21:15:18.757Z,44.13
2023-05-21T21:17:45.868Z,44.81
2023-05-21T21:20:13.684Z,44.54
2023-05-21T21:22:41.083Z,44.78
2023-05-21T21:25:09.214Z,45.32
2023-05-21T21:27:36.382Z,45.04
2023-05-21T21:30:04.583Z,45.23
2023-05-21T21:32:32.944Z,45.47
2023-05-21T21:34:59.865Z,46.04
2023-05-21T21:37:29.214Z,45.23
2023-05-21T21:39:56.553Z,45.65
2023-05-21T21:42:23.788Z,45.66
2023-05-21T21:44:50.733Z,46.25
2023-05-21T21:47:17.649Z,46.40
2023-05-21T21:49:45.877Z,46.10
2023-05-21T21:52:14.564Z,46.14
2023-05-21T21:54:41.452Z,45.86
2023-05-21T21:57:08.366Z,45.88
2023-05-21T21:59:38.620Z,45.81
2023-05-21T22:02:06.009Z,45.70
2023-05-21T22:04:33.053Z,45.95
2023-05-21T22:07:01.732Z,45.77
2023-05-21T22:09:28.874Z,45.97
2023-05-21T22:11:56.376Z,46.40
2023-05-21T22:14:23.394Z,46.19
2023-05-21T22:16:52.969Z,46.35
2023-05-21T22:19:23.681Z,45.71
2023-05-21T22:21:51.012Z,45.99
2023-05-21T22:24:31.333Z,45.58
2023-05-21T22:27:00.364Z,45.66
2023-05-21T22:29:27.346Z,45.79
2023-05-21T22:31:54.282Z,45.65
2023-05-21T22:34:22.191Z,45.41
2023-05-21T22:36:49.135Z,44.98
2023-05-21T22:39:16.746Z,44.48
2023-05-21T22:41:45.529Z,44.26
2023-05-21T22:44:12.412Z,44.68
2023-05-21T22:46:41.904Z,44.23
2023-05-21T22:49:10.143Z,44.09
2023-05-21T22:51:37.408Z,44.43
2023-05-21T22:54:04.764Z,44.03
2023-05-21T22:56:31.687Z,43.69
2023-05-21T22:58:59.929Z,43.24
2023-05-21T23:01:26.993Z,43.35
2023-05-21T23:03:53.945Z,43.14
2023-05-21T23:06:20.876Z,43.07
2023-05-21T23:08:47.817Z,42.85
2023-05-21T23:11:14.836Z,42.80
2023-05-21T23:13:41.711Z,42.07
2023-05-21T23:16:10.126Z,42.19
2023-05-21T23:18:37.265Z,42.52
2023-05-21T23:21:04.493Z,41.72
2023-05-21T23:23:31.490Z,42.15
2023-05-21T23:25:58.935Z,42.03
2023-05-21T23:28:26.925Z,42.00
2023-05-21T23:30:54.164Z,41.71
2023-05-21T23:33:22.384Z,41.81
2023-05-21T23:35:49.273Z,41.75
2023-05-21T23:38:16.248Z,41.12
2023-05-21T23:40:43.354Z,41.42
2023-05-21T23:43:10.574Z,41.37
2023-05-21T23:45:37.622Z,40.86
2023-05-21T23:48:05.125Z,41.43
2023-05-21T23:50:33.587Z,40.54
2023-05-21T23:53:00.647Z,40.93
2023-05-21T23:55:27.525Z,40.95
2023-05-21T23:57:54.399Z,41.17
